Time;durP1;ratioP1;P1;durP2;ratioP2;P2;SDS_P1;SDS_P2;PMS_P1;PMS_P2;Temp;Humidity;BMP_temperature;BMP_pressure;BME280_temperature;BME280_humidity;BME280_pressure;Samples;Min_cycle;Max_cycle;Signal;HPM_P1;HPM_P2
2021/08/01 00:00:08;;;;;;;;;;;15.10;99.90;;;;;;5094618;28;20350;-87
2021/08/01 00:02:34;;;;;;;;;;;15.00;99.90;;;;;;5077840;28;19908;-87
2021/08/01 00:05:00;;;;;;;;;;;15.00;99.90;;;;;;5094744;28;19953;-87
2021/08/01 00:07:25;;;;;;;;;;;14.90;99.90;;;;;;5077681;28;19909;-87
2021/08/01 00:09:56;;;;;;;;;;;14.90;99.90;;;;;;5094600;28;20411;-87
2021/08/01 00:12:21;;;;;;;;;;;14.80;99.90;;;;;;5077562;28;19908;-87
2021/08/01 00:14:47;;;;;;;;;;;14.80;99.90;;;;;;5094621;28;20283;-87
2021/08/01 00:17:12;;;;;;;;;;;14.70;99.90;;;;;;5094616;28;19958;-87
2021/08/01 00:19:38;;;;;;;;;;;14.70;99.90;;;;;;5095562;28;19916;-86
2021/08/01 00:22:03;;;;;;;;;;;14.70;99.90;;;;;;5083807;28;19908;-87
2021/08/01 00:24:29;;;;;;;;;;;14.70;99.90;;;;;;5057528;28;19952;-87
2021/08/01 00:26:54;;;;;;;;;;;14.70;99.90;;;;;;5057242;28;19909;-87
2021/08/01 00:29:20;;;;;;;;;;;14.60;99.90;;;;;;5057184;28;20279;-87
2021/08/01 00:31:45;;;;;;;;;;;14.60;99.90;;;;;;5057563;28;20018;-87
2021/08/01 00:34:11;;;;;;;;;;;14.60;99.90;;;;;;5057151;28;20026;-87
2021/08/01 00:36:36;;;;;;;;;;;14.50;99.90;;;;;;5056808;28;19962;-87
2021/08/01 00:39:02;;;;;;;;;;;14.50;99.90;;;;;;5075236;28;20359;-88
2021/08/01 00:41:28;;;;;;;;;;;14.50;99.90;;;;;;5056885;28;19948;-87
2021/08/01 00:43:53;;;;;;;;;;;14.50;99.90;;;;;;5075048;28;19960;-87
2021/08/01 00:46:19;;;;;;;;;;;14.50;99.90;;;;;;5057308;28;19946;-87
2021/08/01 00:48:44;;;;;;;;;;;14.50;99.90;;;;;;5074800;28;19951;-87
2021/08/01 00:51:10;;;;;;;;;;;14.40;99.90;;;;;;5075209;28;20394;-90
2021/08/01 00:53:35;;;;;;;;;;;14.50;99.90;;;;;;5057397;28;19908;-90
2021/08/01 00:56:01;;;;;;;;;;;14.50;99.90;;;;;;5055884;28;19908;-90
2021/08/01 00:58:26;;;;;;;;;;;14.50;99.90;;;;;;5073763;28;19916;-91
2021/08/01 01:01:06;;;;;;;;;;;14.50;99.90;;;;;;5055395;28;19912;-91
2021/08/01 01:03:45;;;;;;;;;;;14.50;99.90;;;;;;5056496;28;20035;-90
2021/08/01 01:06:15;;;;;;;;;;;14.50;99.90;;;;;;5056378;28;20007;-90
2021/08/01 01:08:55;;;;;;;;;;;14.50;99.90;;;;;;5057439;28;19952;-89
2021/08/01 01:11:21;;;;;;;;;;;14.50;99.90;;;;;;5057031;28;19909;-89
2021/08/01 01:13:49;;;;;;;;;;;14.50;99.90;;;;;;5056537;28;20023;-91
2021/08/01 01:16:14;;;;;;;;;;;14.50;99.90;;;;;;5056375;28;19908;-89
2021/08/01 01:18:46;;;;;;;;;;;14.50;99.90;;;;;;5059827;28;19927;-90
2021/08/01 01:21:24;;;;;;;;;;;14.50;99.90;;;;;;5071881;28;20385;-90
2021/08/01 01:24:16;;;;;;;;;;;14.40;99.90;;;;;;5056233;28;19939;-90
2021/08/01 01:27:00;;;;;;;;;;;14.40;99.90;;;;;;5053022;28;19970;-90
2021/08/01 01:29:26;;;;;;;;;;;14.50;99.90;;;;;;5056251;28;19957;-90
2021/08/01 01:32:04;;;;;;;;;;;14.50;99.90;;;;;;5056395;28;19910;-90
2021/08/01 01:34:36;;;;;;;;;;;14.50;99.90;;;;;;5056184;28;19909;-91
2021/08/01 01:37:02;;;;;;;;;;;14.50;99.90;;;;;;5074135;28;19912;-91
2021/08/01 01:39:30;;;;;;;;;;;14.50;99.90;;;;;;5056179;28;19909;-90
2021/08/01 01:41:56;;;;;;;;;;;14.40;99.90;;;;;;5056740;28;19930;-90
2021/08/01 01:44:21;;;;;;;;;;;14.40;99.90;;;;;;5056017;28;19956;-90
2021/08/01 01:46:47;;;;;;;;;;;14.40;99.90;;;;;;5056068;28;19931;-89
2021/08/01 01:49:13;;;;;;;;;;;14.40;99.90;;;;;;5063939;28;20398;-91
2021/08/01 01:51:40;;;;;;;;;;;14.40;99.90;;;;;;5072152;28;19914;-90
2021/08/01 01:54:06;;;;;;;;;;;14.40;99.90;;;;;;5065114;28;19939;-90
2021/08/01 01:56:33;;;;;;;;;;;14.40;99.90;;;;;;5064857;28;19916;-90
2021/08/01 01:58:59;;;;;;;;;;;14.40;99.90;;;;;;5068040;28;19909;-90
2021/08/01 02:01:24;;;;;;;;;;;14.40;99.90;;;;;;5057130;28;19971;-90
2021/08/01 02:03:53;;;;;;;;;;;14.30;99.90;;;;;;5055602;28;19912;-91
2021/08/01 02:06:19;;;;;;;;;;;14.30;99.90;;;;;;5055384;28;19908;-90
2021/08/01 02:08:44;;;;;;;;;;;14.30;99.90;;;;;;5073969;28;19915;-90
2021/08/01 02:11:10;;;;;;;;;;;14.30;99.90;;;;;;5056716;28;19908;-90
2021/08/01 02:13:59;;;;;;;;;;;14.40;99.90;;;;;;5058539;28;19954;-90
2021/08/01 02:16:28;;;;;;;;;;;14.40;99.90;;;;;;5047351;28;19920;-90
2021/08/01 02:18:56;;;;;;;;;;;14.30;99.90;;;;;;5061974;28;19915;-90
2021/08/01 02:21:21;;;;;;;;;;;14.30;99.90;;;;;;5071666;28;19912;-90
2021/08/01 02:23:48;;;;;;;;;;;14.30;99.90;;;;;;5059231;28;20272;-90
2021/08/01 02:26:16;;;;;;;;;;;14.30;99.90;;;;;;5058625;28;19919;-90
2021/08/01 02:28:42;;;;;;;;;;;14.30;99.90;;;;;;5057811;28;19908;-91
2021/08/01 02:31:08;;;;;;;;;;;14.30;99.90;;;;;;5057474;28;19916;-91
2021/08/01 02:33:34;;;;;;;;;;;14.20;99.90;;;;;;5075485;28;19909;-90
2021/08/01 02:36:01;;;;;;;;;;;14.30;99.90;;;;;;5056209;28;19909;-91
2021/08/01 02:38:27;;;;;;;;;;;14.30;99.90;;;;;;5056309;28;19920;-90
2021/08/01 02:40:54;;;;;;;;;;;14.30;99.90;;;;;;5055899;28;20378;-91
2021/08/01 02:43:21;;;;;;;;;;;14.20;99.90;;;;;;5073173;28;20003;-90
2021/08/01 02:45:47;;;;;;;;;;;14.30;99.90;;;;;;5055528;28;19917;-91
2021/08/01 02:48:14;;;;;;;;;;;14.20;99.90;;;;;;5055335;28;19909;-91
2021/08/01 02:50:42;;;;;;;;;;;14.20;99.90;;;;;;5063756;28;19908;-90
2021/08/01 02:53:09;;;;;;;;;;;14.20;99.90;;;;;;5075301;28;19908;-91
2021/08/01 02:55:37;;;;;;;;;;;14.20;99.90;;;;;;5075232;28;20262;-90
2021/08/01 02:58:04;;;;;;;;;;;14.20;99.90;;;;;;5075254;28;20389;-90
2021/08/01 03:00:30;;;;;;;;;;;14.20;99.90;;;;;;5075510;28;19912;-90
2021/08/01 03:02:56;;;;;;;;;;;14.10;99.90;;;;;;5076336;28;20393;-90
2021/08/01 03:05:22;;;;;;;;;;;14.10;99.90;;;;;;5077084;28;19908;-90
2021/08/01 03:07:48;;;;;;;;;;;14.10;99.90;;;;;;5093671;28;19908;-89
2021/08/01 03:10:14;;;;;;;;;;;14.10;99.90;;;;;;5093496;28;19908;-90
2021/08/01 03:12:43;;;;;;;;;;;14.10;99.90;;;;;;5075266;28;19908;-89
2021/08/01 03:15:09;;;;;;;;;;;14.00;99.90;;;;;;5075076;28;20349;-90
2021/08/01 03:17:34;;;;;;;;;;;14.00;99.90;;;;;;5074920;28;19954;-90
2021/08/01 03:20:00;;;;;;;;;;;14.00;99.90;;;;;;5091290;28;19912;-89
2021/08/01 03:22:25;;;;;;;;;;;14.00;99.90;;;;;;5091522;28;19915;-89
2021/08/01 03:24:51;;;;;;;;;;;14.00;99.90;;;;;;5091767;28;20328;-89
2021/08/01 03:27:16;;;;;;;;;;;14.00;99.90;;;;;;5074672;28;19912;-90
2021/08/01 03:29:42;;;;;;;;;;;14.00;99.90;;;;;;5092176;28;20377;-90
2021/08/01 03:32:07;;;;;;;;;;;14.00;99.90;;;;;;5095310;28;19908;-90
2021/08/01 03:34:33;;;;;;;;;;;14.00;99.90;;;;;;5095199;28;19951;-90
2021/08/01 03:36:58;;;;;;;;;;;14.00;99.90;;;;;;5095155;28;19908;-90
2021/08/01 03:39:24;;;;;;;;;;;14.00;99.90;;;;;;5094942;28;19951;-90
2021/08/01 03:41:49;;;;;;;;;;;13.90;99.90;;;;;;5094866;28;19908;-89
2021/08/01 03:44:14;;;;;;;;;;;14.00;99.90;;;;;;5094705;28;19916;-89
2021/08/01 03:46:40;;;;;;;;;;;14.00;99.90;;;;;;5078053;28;20003;-91
2021/08/01 03:49:06;;;;;;;;;;;14.00;99.90;;;;;;5092410;28;20394;-90
2021/08/01 03:51:31;;;;;;;;;;;13.90;99.90;;;;;;5073088;28;19909;-90
2021/08/01 03:53:57;;;;;;;;;;;13.90;99.90;;;;;;5077949;28;20010;-90
2021/08/01 03:56:22;;;;;;;;;;;13.90;99.90;;;;;;5094940;28;19913;-90
2021/08/01 03:58:48;;;;;;;;;;;14.00;99.90;;;;;;5094536;28;20279;-90
2021/08/01 04:01:13;;;;;;;;;;;13.90;99.90;;;;;;5094378;28;19973;-90
2021/08/01 04:03:39;;;;;;;;;;;13.90;99.90;;;;;;5096227;28;19908;-90
2021/08/01 04:06:05;;;;;;;;;;;13.90;99.90;;;;;;5077501;28;20042;-90
2021/08/01 04:08:31;;;;;;;;;;;13.90;99.90;;;;;;5077621;28;19942;-90
2021/08/01 04:10:57;;;;;;;;;;;13.80;99.90;;;;;;5095603;28;19908;-89
2021/08/01 04:13:22;;;;;;;;;;;13.80;99.90;;;;;;5094705;28;19908;-90
2021/08/01 04:15:47;;;;;;;;;;;13.70;99.90;;;;;;5094184;28;19938;-90
2021/08/01 04:18:13;;;;;;;;;;;13.70;99.90;;;;;;5094153;28;20412;-90
2021/08/01 04:20:39;;;;;;;;;;;13.70;99.90;;;;;;5091060;28;19916;-90
2021/08/01 04:23:04;;;;;;;;;;;13.70;99.90;;;;;;5057821;28;19908;-90
2021/08/01 04:25:30;;;;;;;;;;;13.60;99.90;;;;;;5091112;28;19908;-91
2021/08/01 04:27:55;;;;;;;;;;;13.60;99.90;;;;;;5057077;28;19909;-90
2021/08/01 04:30:21;;;;;;;;;;;13.60;99.90;;;;;;5057143;28;20363;-90
2021/08/01 04:32:46;;;;;;;;;;;13.60;99.90;;;;;;5057102;28;19913;-89
2021/08/01 04:35:12;;;;;;;;;;;13.60;99.90;;;;;;5056990;28;19908;-90
2021/08/01 04:37:37;;;;;;;;;;;13.60;99.90;;;;;;5056926;28;19938;-89
2021/08/01 04:40:04;;;;;;;;;;;13.70;99.90;;;;;;5056524;28;19958;-89
2021/08/01 04:42:29;;;;;;;;;;;13.70;99.90;;;;;;5056840;28;19967;-89
2021/08/01 04:44:55;;;;;;;;;;;13.70;99.90;;;;;;5090311;28;19908;-90
2021/08/01 04:47:20;;;;;;;;;;;13.70;99.90;;;;;;5056339;28;20277;-90
2021/08/01 04:49:45;;;;;;;;;;;13.70;99.90;;;;;;5065568;28;20022;-90
2021/08/01 04:52:14;;;;;;;;;;;13.70;99.90;;;;;;5081727;28;20371;-88
2021/08/01 04:54:40;;;;;;;;;;;13.70;99.90;;;;;;5074372;28;19909;-89
2021/08/01 04:57:05;;;;;;;;;;;13.70;99.90;;;;;;5073947;28;19930;-89
2021/08/01 04:59:34;;;;;;;;;;;13.80;99.90;;;;;;5056324;28;20376;-89
2021/08/01 05:02:00;;;;;;;;;;;13.80;99.90;;;;;;5056414;28;20098;-89
2021/08/01 05:04:25;;;;;;;;;;;13.80;99.90;;;;;;5074005;28;19955;-90
2021/08/01 05:06:51;;;;;;;;;;;13.80;99.90;;;;;;5056366;28;19960;-89
2021/08/01 05:09:16;;;;;;;;;;;13.80;99.90;;;;;;5056187;28;19927;-89
2021/08/01 05:11:42;;;;;;;;;;;13.90;99.90;;;;;;5074096;28;19932;-89
2021/08/01 05:14:07;;;;;;;;;;;13.90;99.90;;;;;;5056131;28;20421;-89
2021/08/01 05:16:33;;;;;;;;;;;13.90;99.90;;;;;;5074023;28;20317;-89
2021/08/01 05:18:58;;;;;;;;;;;14.00;99.90;;;;;;5056356;28;19908;-90
2021/08/01 05:21:24;;;;;;;;;;;14.00;99.90;;;;;;5055971;28;19912;-89
2021/08/01 05:23:50;;;;;;;;;;;14.00;99.90;;;;;;5056071;28;19909;-90
2021/08/01 05:26:15;;;;;;;;;;;14.10;99.90;;;;;;5056263;28;19909;-90
2021/08/01 05:28:41;;;;;;;;;;;14.10;99.90;;;;;;5056356;28;20065;-90
2021/08/01 05:31:06;;;;;;;;;;;14.10;99.90;;;;;;5056227;28;19912;-90
2021/08/01 05:33:32;;;;;;;;;;;14.20;99.90;;;;;;5056045;28;19959;-89
2021/08/01 05:35:57;;;;;;;;;;;14.20;99.90;;;;;;5056787;28;19909;-89
2021/08/01 05:38:23;;;;;;;;;;;14.20;99.90;;;;;;5055978;28;20295;-89
2021/08/01 05:40:48;;;;;;;;;;;14.20;99.90;;;;;;5056040;28;20310;-90
2021/08/01 05:43:14;;;;;;;;;;;14.30;99.90;;;;;;5056335;28;19916;-90
2021/08/01 05:45:39;;;;;;;;;;;14.30;99.90;;;;;;5055810;28;19908;-89
2021/08/01 05:48:05;;;;;;;;;;;14.40;99.90;;;;;;5055437;28;20401;-89
2021/08/01 05:50:30;;;;;;;;;;;14.50;99.90;;;;;;5056009;28;19915;-89
2021/08/01 05:52:56;;;;;;;;;;;14.50;99.90;;;;;;5074091;28;19959;-89
2021/08/01 05:55:21;;;;;;;;;;;14.60;99.90;;;;;;5093311;28;19942;-89
2021/08/01 05:57:47;;;;;;;;;;;14.60;99.90;;;;;;5075792;28;19912;-89
2021/08/01 06:00:13;;;;;;;;;;;14.70;99.90;;;;;;5094767;28;19934;-89
2021/08/01 06:02:38;;;;;;;;;;;14.70;99.90;;;;;;5076260;28;19912;-89
2021/08/01 06:05:04;;;;;;;;;;;14.70;99.90;;;;;;5093063;28;19957;-89
2021/08/01 06:07:29;;;;;;;;;;;14.70;99.90;;;;;;5092169;28;19908;-89
2021/08/01 06:09:55;;;;;;;;;;;14.70;99.90;;;;;;5092848;28;20375;-89
2021/08/01 06:12:20;;;;;;;;;;;14.80;99.90;;;;;;5092961;28;19908;-90
2021/08/01 06:14:47;;;;;;;;;;;14.90;99.90;;;;;;5092472;28;19912;-90
2021/08/01 06:17:13;;;;;;;;;;;14.90;99.90;;;;;;5075953;28;19954;-89
2021/08/01 06:19:38;;;;;;;;;;;15.00;99.90;;;;;;5076388;28;20386;-89
2021/08/01 06:22:04;;;;;;;;;;;15.00;99.90;;;;;;5082222;28;19912;-88
2021/08/01 06:24:30;;;;;;;;;;;15.10;99.90;;;;;;5055729;28;20406;-90
2021/08/01 06:26:55;;;;;;;;;;;15.10;99.90;;;;;;5055784;28;19909;-89
2021/08/01 06:29:21;;;;;;;;;;;15.20;99.90;;;;;;5073889;28;19916;-89
2021/08/01 06:31:46;;;;;;;;;;;15.20;99.90;;;;;;5058958;28;19912;-89
2021/08/01 06:34:12;;;;;;;;;;;15.20;99.90;;;;;;5075177;28;19939;-88
2021/08/01 06:36:37;;;;;;;;;;;15.30;99.90;;;;;;5056310;28;19915;-89
2021/08/01 06:39:02;;;;;;;;;;;15.30;99.90;;;;;;5056234;28;19908;-89
2021/08/01 06:41:28;;;;;;;;;;;15.40;99.90;;;;;;5055705;28;19938;-88
2021/08/01 06:43:53;;;;;;;;;;;15.50;99.90;;;;;;5055810;28;19923;-88
2021/08/01 06:46:19;;;;;;;;;;;15.50;99.90;;;;;;5055289;28;20325;-89
2021/08/01 06:48:44;;;;;;;;;;;15.60;99.90;;;;;;5056184;28;19908;-89
2021/08/01 06:51:10;;;;;;;;;;;15.60;99.90;;;;;;5055392;28;19915;-88
2021/08/01 06:53:35;;;;;;;;;;;15.60;99.90;;;;;;5055882;28;19917;-88
2021/08/01 06:56:01;;;;;;;;;;;15.70;99.90;;;;;;5055138;28;19915;-88
2021/08/01 06:58:26;;;;;;;;;;;15.80;99.90;;;;;;5083413;28;20371;-88
2021/08/01 07:00:52;;;;;;;;;;;16.00;99.90;;;;;;5075162;28;19913;-88
2021/08/01 07:03:18;;;;;;;;;;;16.10;99.90;;;;;;5075259;28;19995;-89
2021/08/01 07:05:44;;;;;;;;;;;16.20;99.90;;;;;;5078305;28;19973;-89
2021/08/01 07:08:09;;;;;;;;;;;16.20;99.90;;;;;;5079284;28;19915;-89
2021/08/01 07:10:35;;;;;;;;;;;16.20;99.90;;;;;;5080995;28;19958;-89
2021/08/01 07:13:02;;;;;;;;;;;16.30;99.90;;;;;;5081510;28;19908;-90
2021/08/01 07:15:28;;;;;;;;;;;16.30;99.90;;;;;;5079858;28;19931;-89
2021/08/01 07:17:54;;;;;;;;;;;16.30;99.90;;;;;;5079948;28;20363;-88
2021/08/01 07:20:20;;;;;;;;;;;16.30;99.90;;;;;;5078289;28;19974;-89
2021/08/01 07:22:45;;;;;;;;;;;16.30;99.90;;;;;;5078551;28;20379;-89
2021/08/01 07:25:11;;;;;;;;;;;16.30;99.90;;;;;;5078563;28;20367;-89
2021/08/01 07:27:37;;;;;;;;;;;16.30;99.90;;;;;;5078019;28;20030;-89
2021/08/01 07:30:03;;;;;;;;;;;16.20;99.90;;;;;;5070208;28;19916;-89
2021/08/01 07:32:28;;;;;;;;;;;16.20;99.90;;;;;;5078551;28;19908;-89
2021/08/01 07:34:54;;;;;;;;;;;16.20;99.90;;;;;;5095668;28;20007;-89
2021/08/01 07:37:19;;;;;;;;;;;16.20;99.90;;;;;;5098911;28;20014;-89
2021/08/01 07:39:45;;;;;;;;;;;16.20;99.90;;;;;;5098122;28;20278;-89
2021/08/01 07:42:11;;;;;;;;;;;16.20;99.90;;;;;;5095066;28;19908;-90
2021/08/01 07:44:47;;;;;;;;;;;16.20;99.90;;;;;;5078117;28;19918;-89
2021/08/01 07:47:17;;;;;;;;;;;16.20;99.90;;;;;;5078139;28;20370;-89
2021/08/01 07:49:43;;;;;;;;;;;16.20;99.90;;;;;;5079054;28;19915;-89
2021/08/01 07:52:09;;;;;;;;;;;16.10;99.90;;;;;;5079968;28;19908;-90
2021/08/01 07:54:34;;;;;;;;;;;16.10;99.90;;;;;;5098597;28;19908;-91
2021/08/01 07:57:00;;;;;;;;;;;16.10;99.90;;;;;;5094629;28;19908;-89
2021/08/01 07:59:25;;;;;;;;;;;16.10;99.90;;;;;;5087214;28;20485;-90
2021/08/01 08:01:51;;;;;;;;;;;16.10;99.90;;;;;;5077553;28;19912;-90
2021/08/01 08:04:16;;;;;;;;;;;16.10;99.90;;;;;;5094449;28;20375;-90
2021/08/01 08:06:42;;;;;;;;;;;16.10;99.90;;;;;;5094570;28;19956;-90
2021/08/01 08:09:07;;;;;;;;;;;16.10;99.90;;;;;;5094390;28;20389;-91
2021/08/01 08:11:33;;;;;;;;;;;16.20;99.90;;;;;;5094389;28;19915;-90
2021/08/01 08:13:58;;;;;;;;;;;16.20;99.90;;;;;;5095468;28;19908;-89
2021/08/01 08:16:24;;;;;;;;;;;16.30;99.90;;;;;;5094584;28;20353;-91
2021/08/01 08:18:52;;;;;;;;;;;16.30;99.90;;;;;;5078402;28;19912;-91
2021/08/01 08:21:18;;;;;;;;;;;16.30;99.90;;;;;;5097559;28;19916;-91
2021/08/01 08:23:44;;;;;;;;;;;16.30;99.90;;;;;;5078866;28;20436;-91
2021/08/01 08:26:09;;;;;;;;;;;16.30;99.90;;;;;;5095363;28;19915;-90
2021/08/01 08:28:35;;;;;;;;;;;16.20;99.90;;;;;;5083433;28;20294;-90
2021/08/01 08:31:00;;;;;;;;;;;16.10;99.90;;;;;;5068576;28;19953;-91
2021/08/01 08:33:26;;;;;;;;;;;16.10;99.90;;;;;;5097378;28;19918;-91
2021/08/01 08:35:52;;;;;;;;;;;16.10;99.90;;;;;;5096419;28;19908;-90
2021/08/01 08:38:17;;;;;;;;;;;16.00;99.90;;;;;;5078476;28;20422;-90
2021/08/01 08:40:43;;;;;;;;;;;16.00;99.90;;;;;;5094384;28;20374;-90
2021/08/01 08:43:09;;;;;;;;;;;16.00;99.90;;;;;;5093911;28;20301;-90
2021/08/01 08:45:35;;;;;;;;;;;16.00;99.90;;;;;;5077587;28;20286;-91
2021/08/01 08:48:00;;;;;;;;;;;16.00;99.90;;;;;;5078009;28;19931;-90
2021/08/01 08:50:27;;;;;;;;;;;16.00;99.90;;;;;;5080348;28;19912;-91
2021/08/01 08:53:03;;;;;;;;;;;15.90;99.90;;;;;;5096325;28;19916;-91
2021/08/01 08:55:32;;;;;;;;;;;15.80;99.90;;;;;;5078588;28;19979;-91
2021/08/01 08:58:02;;;;;;;;;;;15.80;99.90;;;;;;5077165;28;20397;-91
2021/08/01 09:00:28;;;;;;;;;;;15.80;99.90;;;;;;5068275;28;19990;-92
2021/08/01 09:02:54;;;;;;;;;;;15.80;99.90;;;;;;5083313;28;19939;-91
2021/08/01 09:05:20;;;;;;;;;;;15.80;99.90;;;;;;5101901;28;19904;-92
2021/08/01 09:07:45;;;;;;;;;;;15.90;99.90;;;;;;5119684;28;19972;-91
2021/08/01 09:10:11;;;;;;;;;;;16.00;99.90;;;;;;5119503;28;20118;-91
2021/08/01 09:12:40;;;;;;;;;;;16.00;99.90;;;;;;5100087;28;19947;-91
2021/08/01 09:15:16;;;;;;;;;;;16.00;99.90;;;;;;5092556;28;19908;-91
2021/08/01 09:17:42;;;;;;;;;;;16.00;99.90;;;;;;5081535;28;19929;-90
2021/08/01 09:20:15;;;;;;;;;;;16.00;99.90;;;;;;5077821;28;19912;-90
2021/08/01 09:22:40;;;;;;;;;;;16.10;99.90;;;;;;5077882;28;20260;-90
2021/08/01 09:25:20;;;;;;;;;;;16.10;99.90;;;;;;5094566;28;19965;-90
2021/08/01 09:27:45;;;;;;;;;;;16.20;99.90;;;;;;5077727;28;19908;-90
2021/08/01 09:30:11;;;;;;;;;;;16.20;99.90;;;;;;5096584;28;19914;-90
2021/08/01 09:32:50;;;;;;;;;;;16.30;99.90;;;;;;5077691;28;19919;-90
2021/08/01 09:35:19;;;;;;;;;;;16.30;99.90;;;;;;5077177;28;20415;-89
2021/08/01 09:37:54;;;;;;;;;;;16.50;99.90;;;;;;5077240;28;19908;-89
2021/08/01 09:40:19;;;;;;;;;;;16.70;99.90;;;;;;5093837;28;20393;-89
2021/08/01 09:42:46;;;;;;;;;;;16.80;99.90;;;;;;5093938;28;19913;-90
2021/08/01 09:45:18;;;;;;;;;;;16.90;99.90;;;;;;5077169;28;19919;-89
2021/08/01 09:47:44;;;;;;;;;;;17.00;99.90;;;;;;5076207;28;19908;-90
2021/08/01 09:50:10;;;;;;;;;;;17.10;99.90;;;;;;5076539;28;19979;-89
2021/08/01 09:52:37;;;;;;;;;;;17.10;99.90;;;;;;5076155;28;19958;-90
2021/08/01 09:55:02;;;;;;;;;;;17.20;99.90;;;;;;5093447;28;19940;-90
2021/08/01 09:57:28;;;;;;;;;;;17.20;99.90;;;;;;5092840;28;19962;-89
2021/08/01 10:00:07;;;;;;;;;;;17.20;99.90;;;;;;5092356;28;19912;-90
2021/08/01 10:02:39;;;;;;;;;;;17.20;99.90;;;;;;5095341;28;19912;-92
2021/08/01 10:05:14;;;;;;;;;;;17.30;99.90;;;;;;5092368;28;19919;-91
2021/08/01 10:07:41;;;;;;;;;;;17.30;99.90;;;;;;5104706;28;19923;-90
2021/08/01 10:10:15;;;;;;;;;;;17.50;99.90;;;;;;5087169;28;19912;-90
2021/08/01 10:12:45;;;;;;;;;;;17.70;99.90;;;;;;5084515;28;20007;-91
2021/08/01 10:15:11;;;;;;;;;;;17.90;99.90;;;;;;5096495;28;19908;-90
2021/08/01 10:17:38;;;;;;;;;;;18.10;99.90;;;;;;5076492;28;19919;-92
2021/08/01 10:20:05;;;;;;;;;;;18.30;99.90;;;;;;5094538;28;19916;-91
2021/08/01 10:22:30;;;;;;;;;;;18.40;99.90;;;;;;5077662;28;19961;-91
2021/08/01 10:25:00;;;;;;;;;;;18.50;99.90;;;;;;5077400;28;19912;-91
2021/08/01 10:27:27;;;;;;;;;;;18.60;99.90;;;;;;5072970;28;19908;-89
2021/08/01 10:29:56;;;;;;;;;;;18.60;99.90;;;;;;5064800;28;19951;-90
2021/08/01 10:32:23;;;;;;;;;;;18.50;99.90;;;;;;5075335;28;20271;-91
2021/08/01 10:34:53;;;;;;;;;;;18.60;99.90;;;;;;5075163;28;19909;-91
2021/08/01 10:37:20;;;;;;;;;;;18.60;99.90;;;;;;5074682;28;19947;-89
2021/08/01 10:39:47;;;;;;;;;;;18.60;99.90;;;;;;5076396;28;19927;-88
2021/08/01 10:42:13;;;;;;;;;;;18.60;99.90;;;;;;5075713;28;19923;-91
2021/08/01 10:44:40;;;;;;;;;;;18.70;99.90;;;;;;5075464;28;19920;-89
2021/08/01 10:47:07;;;;;;;;;;;18.70;99.90;;;;;;5074692;28;19959;-90
2021/08/01 10:49:36;;;;;;;;;;;18.80;99.90;;;;;;5074885;28;20053;-89
2021/08/01 10:52:04;;;;;;;;;;;18.80;99.90;;;;;;5092882;28;20305;-89
2021/08/01 10:54:31;;;;;;;;;;;18.80;99.90;;;;;;5074658;28;20430;-89
2021/08/01 10:57:13;;;;;;;;;;;18.90;99.90;;;;;;5090996;28;19912;-88
2021/08/01 10:59:45;;;;;;;;;;;19.00;99.90;;;;;;5088835;28;19908;-88
2021/08/01 11:02:12;;;;;;;;;;;19.10;99.90;;;;;;5054766;28;19915;-90
2021/08/01 11:04:38;;;;;;;;;;;19.30;99.90;;;;;;5072431;28;20359;-88
2021/08/01 11:07:04;;;;;;;;;;;19.40;99.90;;;;;;5054427;28;19915;-89
2021/08/01 11:09:29;;;;;;;;;;;19.50;99.90;;;;;;5072406;28;20007;-88
2021/08/01 11:12:13;;;;;;;;;;;19.70;99.90;;;;;;5054148;28;20359;-87
2021/08/01 11:14:47;;;;;;;;;;;19.90;99.90;;;;;;5054341;28;19992;-88
2021/08/01 11:17:12;;;;;;;;;;;20.10;99.90;;;;;;5072206;28;19909;-88
2021/08/01 11:19:38;;;;;;;;;;;20.20;99.90;;;;;;5054154;28;19999;-88
2021/08/01 11:22:04;;;;;;;;;;;20.10;99.90;;;;;;5072172;28;19958;-89
2021/08/01 11:24:29;;;;;;;;;;;20.10;99.90;;;;;;5072229;28;20290;-89
2021/08/01 11:27:04;;;;;;;;;;;20.00;99.90;;;;;;5053874;28;19908;-87
2021/08/01 11:29:29;;;;;;;;;;;20.00;99.90;;;;;;5066441;28;19909;-89
2021/08/01 11:32:05;;;;;;;;;;;20.00;99.90;;;;;;5090938;28;20370;-89
2021/08/01 11:34:30;;;;;;;;;;;20.30;99.90;;;;;;5092135;28;19943;-88
2021/08/01 11:37:15;;;;;;;;;;;20.30;99.90;;;;;;5090839;28;20326;-89
2021/08/01 11:39:54;;;;;;;;;;;20.40;99.90;;;;;;5073817;28;19908;-88
2021/08/01 11:42:28;;;;;;;;;;;20.30;99.90;;;;;;5074441;28;19909;-88
2021/08/01 11:45:01;;;;;;;;;;;20.30;99.90;;;;;;5074202;28;19908;-88
2021/08/01 11:47:27;;;;;;;;;;;20.30;99.90;;;;;;5073843;28;19908;-88
2021/08/01 11:49:53;;;;;;;;;;;20.00;99.90;;;;;;5074744;28;20305;-87
2021/08/01 11:52:20;;;;;;;;;;;20.10;99.90;;;;;;5078431;28;19914;-88
2021/08/01 11:54:46;;;;;;;;;;;20.40;99.90;;;;;;5095976;28;19958;-87
2021/08/01 11:57:15;;;;;;;;;;;20.60;99.90;;;;;;5077694;28;19908;-88
2021/08/01 11:59:42;;;;;;;;;;;20.80;99.90;;;;;;5070329;28;20344;-88
2021/08/01 12:02:14;;;;;;;;;;;20.90;99.90;;;;;;5080281;28;19912;-87
2021/08/01 12:04:51;;;;;;;;;;;20.90;99.90;;;;;;5080826;28;19957;-88
2021/08/01 12:07:16;;;;;;;;;;;21.00;99.90;;;;;;5071305;28;19917;-88
2021/08/01 12:09:42;;;;;;;;;;;21.00;99.90;;;;;;5061293;28;20291;-87
2021/08/01 12:12:08;;;;;;;;;;;21.30;99.90;;;;;;5060856;28;20291;-87
2021/08/01 12:14:34;;;;;;;;;;;21.90;99.90;;;;;;5059542;28;19998;-88
2021/08/01 12:17:00;;;;;;;;;;;22.10;99.90;;;;;;5058095;28;19908;-88
2021/08/01 12:19:27;;;;;;;;;;;22.20;99.90;;;;;;5076026;28;20459;-88
2021/08/01 12:21:54;;;;;;;;;;;22.30;99.90;;;;;;5075578;28;19919;-86
2021/08/01 12:24:31;;;;;;;;;;;22.40;99.90;;;;;;5057835;28;19909;-89
2021/08/01 12:27:17;;;;;;;;;;;22.70;99.90;;;;;;5056810;28;19915;-89
2021/08/01 12:29:53;;;;;;;;;;;22.70;99.90;;;;;;5082816;28;19935;-89
2021/08/01 12:32:25;;;;;;;;;;;22.60;99.90;;;;;;5094983;28;20366;-88
2021/08/01 12:34:52;;;;;;;;;;;22.20;99.90;;;;;;5076872;28;20379;-91
2021/08/01 12:37:17;;;;;;;;;;;22.10;99.90;;;;;;5094783;28;19912;-87
2021/08/01 12:39:47;;;;;;;;;;;22.00;99.90;;;;;;5094705;28;19961;-87
2021/08/01 12:42:13;;;;;;;;;;;21.60;99.90;;;;;;5077843;28;19930;-90
2021/08/01 12:44:49;;;;;;;;;;;21.10;99.90;;;;;;5094746;28;20313;-91
2021/08/01 12:47:14;;;;;;;;;;;20.60;99.90;;;;;;5096063;28;19908;-91
2021/08/01 12:49:40;;;;;;;;;;;20.30;99.90;;;;;;5095825;28;19995;-91
2021/08/01 12:52:06;;;;;;;;;;;19.90;99.90;;;;;;5096210;28;20252;-92
2021/08/01 12:54:32;;;;;;;;;;;20.20;99.90;;;;;;5094494;28;19908;-91
2021/08/01 12:57:07;;;;;;;;;;;20.90;99.90;;;;;;5095819;28;19962;-91
2021/08/01 12:59:33;;;;;;;;;;;21.50;99.90;;;;;;5069025;28;20371;-90
2021/08/01 13:01:59;;;;;;;;;;;21.90;99.90;;;;;;5074682;28;20371;-89
2021/08/01 13:04:24;;;;;;;;;;;22.30;99.90;;;;;;5094202;28;19923;-88
2021/08/01 13:06:59;;;;;;;;;;;22.40;99.90;;;;;;5076114;28;19915;-88
2021/08/01 13:09:24;;;;;;;;;;;22.50;99.90;;;;;;5094138;28;19908;-89
2021/08/01 13:11:50;;;;;;;;;;;22.90;99.90;;;;;;5092955;28;19908;-89
2021/08/01 13:14:15;;;;;;;;;;;23.00;99.90;;;;;;5093168;28;20405;-87
2021/08/01 13:16:49;;;;;;;;;;;23.00;99.90;;;;;;5093851;28;19914;-87
2021/08/01 13:19:15;;;;;;;;;;;22.80;99.90;;;;;;5075988;28;19908;-87
2021/08/01 13:21:41;;;;;;;;;;;23.20;99.90;;;;;;5075890;28;19912;-88
2021/08/01 13:24:12;;;;;;;;;;;23.80;99.90;;;;;;5075779;28;19918;-88
2021/08/01 13:26:37;;;;;;;;;;;24.20;99.90;;;;;;5075621;28;19912;-89
2021/08/01 13:29:03;;;;;;;;;;;23.80;99.90;;;;;;5090790;28;19915;-87
2021/08/01 13:31:38;;;;;;;;;;;23.50;99.90;;;;;;5070586;28;19912;-88
2021/08/01 13:34:10;;;;;;;;;;;22.90;99.90;;;;;;5075511;28;20424;-87
2021/08/01 13:36:42;;;;;;;;;;;22.20;99.90;;;;;;5075820;28;19908;-87
2021/08/01 13:39:10;;;;;;;;;;;21.50;99.90;;;;;;5093639;28;19908;-88
2021/08/01 13:41:36;;;;;;;;;;;20.90;99.90;;;;;;5093696;28;20378;-87
2021/08/01 13:44:12;;;;;;;;;;;20.60;99.90;;;;;;5075353;28;20451;-88
2021/08/01 13:46:38;;;;;;;;;;;20.30;99.90;;;;;;5094246;28;19908;-91
2021/08/01 13:49:04;;;;;;;;;;;20.00;99.90;;;;;;5075953;28;19915;-90
2021/08/01 13:51:32;;;;;;;;;;;19.50;99.90;;;;;;5093971;28;19915;-91
2021/08/01 13:53:59;;;;;;;;;;;19.10;99.90;;;;;;5093751;28;19915;-88
2021/08/01 13:56:25;;;;;;;;;;;18.50;99.90;;;;;;5075209;28;19908;-92
2021/08/01 13:58:50;;;;;;;;;;;18.00;99.90;;;;;;5075583;28;19908;-91
2021/08/01 14:01:16;;;;;;;;;;;17.70;99.90;;;;;;5092369;28;19919;-90
2021/08/01 14:03:44;;;;;;;;;;;17.50;99.90;;;;;;5075329;28;19909;-91
2021/08/01 14:06:09;;;;;;;;;;;17.30;99.90;;;;;;5077423;28;19908;-91
2021/08/01 14:08:35;;;;;;;;;;;17.60;99.90;;;;;;5077113;28;19908;-91
2021/08/01 14:11:00;;;;;;;;;;;18.10;99.90;;;;;;5075347;28;19916;-88
2021/08/01 14:13:27;;;;;;;;;;;18.90;99.90;;;;;;5074630;28;19913;-89
2021/08/01 14:15:54;;;;;;;;;;;19.30;99.90;;;;;;5074993;28;19908;-89